Hlavní strana
METAR-TAF:

METAR-TAF

Letiště :

Huntsville, Alabama, Spojené státy americké

zeměpisná šířka: 34-38-37N, zeměpisná délka: 086-47-08W, výška: 192 m

Aktuální stav počasí

Zpráva byla vytvořena před 1 hodinou a 3 minutami, v 12:53 UTC
Severovýchodní vítr 9 kt
Teplota 7°C
Vlhkost vzduchu 57%
Tlak 1027 hPa
Viditelnost: 16.1 km
Jasno

METAR: KHSV 181253Z 04009KT 10SM CLR 07/M01 A3033 RMK AO2 SLP270 T00671011

Čas: 08:56 (13:56 UTC)

Předpověď počasí

Zpráva byla vytvořena před 2 hodinami a 36 minutami, v 11:20 UTC
Předpověď platná od 18 v 12 UTC do 19 v 12 UTC
vítr z různých směrů 4 kt
Viditelnost: 10 km
Jasno
Od 18 v 1500 UTC
Severní vítr 8 kt s nárazy do 14 kt
Viditelnost: 10 km
Skoro jasno ve výšce 25000 ft
Od 19 v 0000 UTC
Severoseverovýchodní vítr 4 kt
Viditelnost: 10 km
Jasno

TAF: KHSV 181120Z 1812/1912 VRB04KT P6SM SKC FM181500 36008G14KT P6SM FEW250 FM190000 02004KT P6SM SKC

Stav a předpovědi počasí z více než 4 000 letišť (zprávy METAR a TAF).

Červené a žluté tečky na mapě představují dostupné meteorologické stanice.

Když kurzor umístíte na tečku, zobrazí se název stanice.

Pak kliknutím zobrazíte stav a předpověď počasí.

Chcete-li změnit mapu, kliknutím na zelené tlačítko se znaménkem +mapu přiblížíte, kliknutím na zelené tlačítko se znaménkem – mapu oddálíte a kliknutím na zelené šipky přejdete na sousední mapy.


METAR-TAF: